sensor_id;sensor_type;location;lat;lon;timestamp;P1;durP1;ratioP1;P2;durP2;ratioP2
74959;SDS011;63518;49.572;1.106;2023-04-06T00:01:03;14.85;;;4.80;;
74959;SDS011;63518;49.572;1.106;2023-04-06T00:03:30;10.40;;;4.68;;
74959;SDS011;63518;49.572;1.106;2023-04-06T00:05:57;9.80;;;4.10;;
74959;SDS011;63518;49.572;1.106;2023-04-06T00:08:25;12.68;;;4.60;;
74959;SDS011;63518;49.572;1.106;2023-04-06T00:10:53;10.95;;;4.22;;
74959;SDS011;63518;49.572;1.106;2023-04-06T00:13:20;11.90;;;4.57;;
74959;SDS011;63518;49.572;1.106;2023-04-06T00:15:47;8.82;;;3.22;;
74959;SDS011;63518;49.572;1.106;2023-04-06T00:18:14;11.80;;;4.30;;
74959;SDS011;63518;49.572;1.106;2023-04-06T00:20:41;10.30;;;3.85;;
74959;SDS011;63518;49.572;1.106;2023-04-06T00:23:08;14.00;;;4.78;;
74959;SDS011;63518;49.572;1.106;2023-04-06T00:25:35;11.52;;;3.65;;
74959;SDS011;63518;49.572;1.106;2023-04-06T00:28:02;10.05;;;3.95;;
74959;SDS011;63518;49.572;1.106;2023-04-06T00:30:30;10.15;;;4.22;;
74959;SDS011;63518;49.572;1.106;2023-04-06T00:32:57;9.85;;;4.50;;
74959;SDS011;63518;49.572;1.106;2023-04-06T00:35:24;13.20;;;4.82;;
74959;SDS011;63518;49.572;1.106;2023-04-06T00:37:51;10.75;;;4.60;;
74959;SDS011;63518;49.572;1.106;2023-04-06T00:40:18;11.48;;;4.95;;
74959;SDS011;63518;49.572;1.106;2023-04-06T00:42:45;12.70;;;4.95;;
74959;SDS011;63518;49.572;1.106;2023-04-06T00:45:13;11.25;;;4.38;;
74959;SDS011;63518;49.572;1.106;2023-04-06T00:47:39;11.48;;;4.82;;
74959;SDS011;63518;49.572;1.106;2023-04-06T00:50:07;14.43;;;5.50;;
74959;SDS011;63518;49.572;1.106;2023-04-06T00:52:34;13.27;;;5.18;;
74959;SDS011;63518;49.572;1.106;2023-04-06T00:55:02;12.15;;;5.00;;
74959;SDS011;63518;49.572;1.106;2023-04-06T00:57:30;11.15;;;5.10;;
74959;SDS011;63518;49.572;1.106;2023-04-06T00:59:57;15.15;;;4.90;;
74959;SDS011;63518;49.572;1.106;2023-04-06T01:02:24;12.98;;;4.65;;
74959;SDS011;63518;49.572;1.106;2023-04-06T01:04:52;11.40;;;4.38;;
74959;SDS011;63518;49.572;1.106;2023-04-06T01:07:21;12.35;;;4.63;;
74959;SDS011;63518;49.572;1.106;2023-04-06T01:09:48;9.48;;;4.28;;
74959;SDS011;63518;49.572;1.106;2023-04-06T01:12:14;13.30;;;4.82;;
74959;SDS011;63518;49.572;1.106;2023-04-06T01:14:41;14.00;;;5.65;;
74959;SDS011;63518;49.572;1.106;2023-04-06T01:17:09;17.60;;;5.20;;
74959;SDS011;63518;49.572;1.106;2023-04-06T01:19:36;11.75;;;4.85;;
74959;SDS011;63518;49.572;1.106;2023-04-06T01:22:03;11.52;;;4.72;;
74959;SDS011;63518;49.572;1.106;2023-04-06T01:24:31;13.02;;;5.05;;
74959;SDS011;63518;49.572;1.106;2023-04-06T01:26:58;12.45;;;5.05;;
74959;SDS011;63518;49.572;1.106;2023-04-06T01:29:25;13.85;;;4.60;;
74959;SDS011;63518;49.572;1.106;2023-04-06T01:31:52;9.98;;;4.07;;
74959;SDS011;63518;49.572;1.106;2023-04-06T01:34:19;10.55;;;4.03;;
74959;SDS011;63518;49.572;1.106;2023-04-06T01:36:46;8.93;;;4.13;;
74959;SDS011;63518;49.572;1.106;2023-04-06T01:39:13;12.18;;;4.45;;
74959;SDS011;63518;49.572;1.106;2023-04-06T01:41:40;11.23;;;4.68;;
74959;SDS011;63518;49.572;1.106;2023-04-06T01:44:07;11.35;;;4.28;;
74959;SDS011;63518;49.572;1.106;2023-04-06T01:46:34;10.35;;;4.45;;
74959;SDS011;63518;49.572;1.106;2023-04-06T01:49:01;11.07;;;4.47;;
74959;SDS011;63518;49.572;1.106;2023-04-06T01:51:28;10.57;;;3.95;;
74959;SDS011;63518;49.572;1.106;2023-04-06T01:53:55;10.10;;;4.68;;
74959;SDS011;63518;49.572;1.106;2023-04-06T01:56:22;12.90;;;4.75;;
74959;SDS011;63518;49.572;1.106;2023-04-06T01:58:48;11.05;;;5.07;;
74959;SDS011;63518;49.572;1.106;2023-04-06T02:01:15;10.93;;;5.25;;
74959;SDS011;63518;49.572;1.106;2023-04-06T02:03:42;14.88;;;5.25;;
74959;SDS011;63518;49.572;1.106;2023-04-06T02:06:09;10.88;;;5.00;;
74959;SDS011;63518;49.572;1.106;2023-04-06T02:08:36;11.27;;;4.55;;
74959;SDS011;63518;49.572;1.106;2023-04-06T02:11:03;12.35;;;4.78;;
74959;SDS011;63518;49.572;1.106;2023-04-06T02:13:30;13.27;;;5.40;;
74959;SDS011;63518;49.572;1.106;2023-04-06T02:15:56;15.57;;;4.95;;
74959;SDS011;63518;49.572;1.106;2023-04-06T02:18:23;12.27;;;5.65;;
74959;SDS011;63518;49.572;1.106;2023-04-06T02:20:50;17.33;;;5.57;;
74959;SDS011;63518;49.572;1.106;2023-04-06T02:23:17;17.40;;;6.53;;
74959;SDS011;63518;49.572;1.106;2023-04-06T02:25:44;16.67;;;5.60;;
74959;SDS011;63518;49.572;1.106;2023-04-06T02:28:30;20.40;;;7.07;;
74959;SDS011;63518;49.572;1.106;2023-04-06T02:30:57;21.02;;;6.93;;
74959;SDS011;63518;49.572;1.106;2023-04-06T02:33:24;15.13;;;6.20;;
74959;SDS011;63518;49.572;1.106;2023-04-06T02:35:50;11.00;;;4.30;;
74959;SDS011;63518;49.572;1.106;2023-04-06T02:38:17;13.68;;;4.85;;
74959;SDS011;63518;49.572;1.106;2023-04-06T02:40:44;12.07;;;4.22;;
74959;SDS011;63518;49.572;1.106;2023-04-06T02:43:11;9.43;;;4.38;;
74959;SDS011;63518;49.572;1.106;2023-04-06T02:45:38;11.40;;;4.68;;
74959;SDS011;63518;49.572;1.106;2023-04-06T02:48:05;10.57;;;4.50;;
74959;SDS011;63518;49.572;1.106;2023-04-06T02:50:32;10.07;;;4.63;;
74959;SDS011;63518;49.572;1.106;2023-04-06T02:52:59;11.55;;;5.20;;
74959;SDS011;63518;49.572;1.106;2023-04-06T02:55:26;15.23;;;6.32;;
74959;SDS011;63518;49.572;1.106;2023-04-06T02:57:53;16.27;;;5.80;;
74959;SDS011;63518;49.572;1.106;2023-04-06T03:00:20;14.55;;;6.50;;
74959;SDS011;63518;49.572;1.106;2023-04-06T03:02:47;12.65;;;4.85;;
74959;SDS011;63518;49.572;1.106;2023-04-06T03:05:14;11.68;;;5.00;;
74959;SDS011;63518;49.572;1.106;2023-04-06T03:07:41;5.28;;;1.95;;
74959;SDS011;63518;49.572;1.106;2023-04-06T03:10:08;15.77;;;6.60;;
74959;SDS011;63518;49.572;1.106;2023-04-06T03:12:36;9.65;;;4.50;;
74959;SDS011;63518;49.572;1.106;2023-04-06T03:15:03;12.77;;;5.70;;
74959;SDS011;63518;49.572;1.106;2023-04-06T03:17:30;13.10;;;4.97;;
74959;SDS011;63518;49.572;1.106;2023-04-06T03:19:57;11.88;;;5.55;;
74959;SDS011;63518;49.572;1.106;2023-04-06T03:22:24;12.27;;;4.75;;
74959;SDS011;63518;49.572;1.106;2023-04-06T03:24:51;10.07;;;4.18;;
74959;SDS011;63518;49.572;1.106;2023-04-06T03:27:18;14.80;;;4.53;;
74959;SDS011;63518;49.572;1.106;2023-04-06T03:29:44;7.30;;;2.60;;
74959;SDS011;63518;49.572;1.106;2023-04-06T03:32:12;9.93;;;4.47;;
74959;SDS011;63518;49.572;1.106;2023-04-06T03:34:39;12.20;;;5.45;;
74959;SDS011;63518;49.572;1.106;2023-04-06T03:37:06;15.70;;;5.07;;
74959;SDS011;63518;49.572;1.106;2023-04-06T03:39:36;9.77;;;3.88;;
74959;SDS011;63518;49.572;1.106;2023-04-06T03:42:03;13.15;;;5.00;;
74959;SDS011;63518;49.572;1.106;2023-04-06T03:44:30;13.02;;;5.20;;
74959;SDS011;63518;49.572;1.106;2023-04-06T03:46:56;14.82;;;5.50;;
74959;SDS011;63518;49.572;1.106;2023-04-06T03:49:23;11.80;;;4.30;;
74959;SDS011;63518;49.572;1.106;2023-04-06T03:51:50;6.35;;;2.72;;
74959;SDS011;63518;49.572;1.106;2023-04-06T03:54:17;11.10;;;4.15;;
74959;SDS011;63518;49.572;1.106;2023-04-06T03:56:50;11.25;;;3.53;;
74959;SDS011;63518;49.572;1.106;2023-04-06T03:59:27;15.25;;;4.90;;
74959;SDS011;63518;49.572;1.106;2023-04-06T04:01:54;10.52;;;4.80;;
74959;SDS011;63518;49.572;1.106;2023-04-06T04:04:21;13.65;;;5.43;;
74959;SDS011;63518;49.572;1.106;2023-04-06T04:06:47;12.50;;;5.10;;
74959;SDS011;63518;49.572;1.106;2023-04-06T04:09:14;8.10;;;3.72;;
74959;SDS011;63518;49.572;1.106;2023-04-06T04:11:41;9.20;;;3.13;;
74959;SDS011;63518;49.572;1.106;2023-04-06T04:14:08;10.65;;;4.25;;
74959;SDS011;63518;49.572;1.106;2023-04-06T04:16:35;10.43;;;4.30;;
74959;SDS011;63518;49.572;1.106;2023-04-06T04:19:02;3.42;;;1.45;;
74959;SDS011;63518;49.572;1.106;2023-04-06T04:21:29;11.65;;;4.68;;
74959;SDS011;63518;49.572;1.106;2023-04-06T04:23:57;10.70;;;4.15;;
74959;SDS011;63518;49.572;1.106;2023-04-06T04:26:24;13.30;;;3.05;;
74959;SDS011;63518;49.572;1.106;2023-04-06T04:28:51;8.85;;;3.30;;
74959;SDS011;63518;49.572;1.106;2023-04-06T04:31:18;9.45;;;3.65;;
74959;SDS011;63518;49.572;1.106;2023-04-06T04:33:46;9.43;;;4.28;;
74959;SDS011;63518;49.572;1.106;2023-04-06T04:36:13;10.85;;;4.75;;
74959;SDS011;63518;49.572;1.106;2023-04-06T04:38:40;1.40;;;0.65;;
74959;SDS011;63518;49.572;1.106;2023-04-06T04:41:07;7.78;;;2.83;;
74959;SDS011;63518;49.572;1.106;2023-04-06T04:43:34;12.30;;;4.38;;
74959;SDS011;63518;49.572;1.106;2023-04-06T04:46:01;14.57;;;5.60;;
74959;SDS011;63518;49.572;1.106;2023-04-06T04:48:27;11.82;;;4.68;;
74959;SDS011;63518;49.572;1.106;2023-04-06T04:50:54;9.77;;;4.00;;
74959;SDS011;63518;49.572;1.106;2023-04-06T04:53:21;14.10;;;4.13;;
74959;SDS011;63518;49.572;1.106;2023-04-06T04:55:50;18.83;;;4.50;;
74959;SDS011;63518;49.572;1.106;2023-04-06T04:58:17;13.35;;;5.10;;
74959;SDS011;63518;49.572;1.106;2023-04-06T05:00:46;9.75;;;3.40;;
74959;SDS011;63518;49.572;1.106;2023-04-06T05:03:14;3.72;;;1.23;;
74959;SDS011;63518;49.572;1.106;2023-04-06T05:05:46;10.30;;;4.65;;
74959;SDS011;63518;49.572;1.106;2023-04-06T05:08:13;3.83;;;1.80;;
74959;SDS011;63518;49.572;1.106;2023-04-06T05:10:41;8.90;;;3.22;;
74959;SDS011;63518;49.572;1.106;2023-04-06T05:13:08;9.77;;;3.97;;
74959;SDS011;63518;49.572;1.106;2023-04-06T05:15:35;7.95;;;2.58;;
74959;SDS011;63518;49.572;1.106;2023-04-06T05:18:04;12.70;;;5.28;;
74959;SDS011;63518;49.572;1.106;2023-04-06T05:20:32;10.20;;;3.88;;
74959;SDS011;63518;49.572;1.106;2023-04-06T05:23:00;13.65;;;5.35;;
74959;SDS011;63518;49.572;1.106;2023-04-06T05:25:27;6.22;;;2.72;;
74959;SDS011;63518;49.572;1.106;2023-04-06T05:27:54;11.23;;;4.35;;
74959;SDS011;63518;49.572;1.106;2023-04-06T05:30:21;2.70;;;0.95;;
74959;SDS011;63518;49.572;1.106;2023-04-06T05:32:48;10.18;;;3.20;;
74959;SDS011;63518;49.572;1.106;2023-04-06T05:35:16;12.60;;;5.15;;
74959;SDS011;63518;49.572;1.106;2023-04-06T05:37:43;7.00;;;2.47;;
74959;SDS011;63518;49.572;1.106;2023-04-06T05:40:11;9.10;;;4.18;;
74959;SDS011;63518;49.572;1.106;2023-04-06T05:42:41;9.38;;;3.53;;
74959;SDS011;63518;49.572;1.106;2023-04-06T05:45:11;11.23;;;4.55;;
74959;SDS011;63518;49.572;1.106;2023-04-06T05:47:43;11.55;;;4.07;;
74959;SDS011;63518;49.572;1.106;2023-04-06T05:50:11;5.55;;;2.42;;
74959;SDS011;63518;49.572;1.106;2023-04-06T05:52:38;11.63;;;3.72;;
74959;SDS011;63518;49.572;1.106;2023-04-06T05:55:07;7.55;;;3.35;;
74959;SDS011;63518;49.572;1.106;2023-04-06T05:57:36;11.57;;;5.05;;
74959;SDS011;63518;49.572;1.106;2023-04-06T06:00:03;11.30;;;4.45;;
74959;SDS011;63518;49.572;1.106;2023-04-06T06:02:33;13.52;;;3.97;;
74959;SDS011;63518;49.572;1.106;2023-04-06T06:05:00;8.02;;;3.15;;
74959;SDS011;63518;49.572;1.106;2023-04-06T06:07:27;6.35;;;1.92;;
74959;SDS011;63518;49.572;1.106;2023-04-06T06:09:57;3.00;;;1.15;;
74959;SDS011;63518;49.572;1.106;2023-04-06T06:12:31;7.88;;;3.45;;
74959;SDS011;63518;49.572;1.106;2023-04-06T06:14:58;7.60;;;2.85;;
74959;SDS011;63518;49.572;1.106;2023-04-06T06:17:25;4.18;;;1.90;;
74959;SDS011;63518;49.572;1.106;2023-04-06T06:19:52;9.52;;;3.85;;
74959;SDS011;63518;49.572;1.106;2023-04-06T06:22:19;9.65;;;4.15;;
74959;SDS011;63518;49.572;1.106;2023-04-06T06:24:46;9.75;;;2.97;;
74959;SDS011;63518;49.572;1.106;2023-04-06T06:27:13;12.70;;;5.25;;
74959;SDS011;63518;49.572;1.106;2023-04-06T06:29:39;8.82;;;3.67;;
74959;SDS011;63518;49.572;1.106;2023-04-06T06:32:06;11.40;;;3.55;;
74959;SDS011;63518;49.572;1.106;2023-04-06T06:34:35;5.55;;;2.05;;
74959;SDS011;63518;49.572;1.106;2023-04-06T06:37:02;8.07;;;2.17;;
74959;SDS011;63518;49.572;1.106;2023-04-06T06:39:29;4.85;;;2.10;;
74959;SDS011;63518;49.572;1.106;2023-04-06T06:41:56;10.48;;;3.85;;
74959;SDS011;63518;49.572;1.106;2023-04-06T06:44:23;5.60;;;2.00;;
74959;SDS011;63518;49.572;1.106;2023-04-06T06:46:50;4.72;;;1.75;;
74959;SDS011;63518;49.572;1.106;2023-04-06T06:49:17;4.35;;;1.33;;
74959;SDS011;63518;49.572;1.106;2023-04-06T06:51:44;8.27;;;3.60;;
74959;SDS011;63518;49.572;1.106;2023-04-06T06:54:12;8.10;;;3.50;;
74959;SDS011;63518;49.572;1.106;2023-04-06T06:56:39;9.82;;;3.53;;
74959;SDS011;63518;49.572;1.106;2023-04-06T06:59:06;4.88;;;1.73;;
74959;SDS011;63518;49.572;1.106;2023-04-06T07:01:33;5.65;;;2.28;;
74959;SDS011;63518;49.572;1.106;2023-04-06T07:04:01;6.43;;;1.90;;
74959;SDS011;63518;49.572;1.106;2023-04-06T07:06:28;7.18;;;2.40;;
74959;SDS011;63518;49.572;1.106;2023-04-06T07:08:55;6.63;;;2.53;;
74959;SDS011;63518;49.572;1.106;2023-04-06T07:11:22;7.28;;;2.75;;
74959;SDS011;63518;49.572;1.106;2023-04-06T07:13:49;9.38;;;3.47;;
74959;SDS011;63518;49.572;1.106;2023-04-06T07:16:16;5.15;;;1.85;;
74959;SDS011;63518;49.572;1.106;2023-04-06T07:18:44;3.63;;;1.77;;
74959;SDS011;63518;49.572;1.106;2023-04-06T07:21:11;2.85;;;1.00;;
74959;SDS011;63518;49.572;1.106;2023-04-06T07:23:38;3.95;;;1.58;;
74959;SDS011;63518;49.572;1.106;2023-04-06T07:26:05;5.60;;;1.70;;
74959;SDS011;63518;49.572;1.106;2023-04-06T07:28:35;2.85;;;0.88;;
74959;SDS011;63518;49.572;1.106;2023-04-06T07:31:03;8.90;;;3.03;;
74959;SDS011;63518;49.572;1.106;2023-04-06T07:33:30;6.35;;;2.13;;
74959;SDS011;63518;49.572;1.106;2023-04-06T07:36:00;8.35;;;2.72;;
74959;SDS011;63518;49.572;1.106;2023-04-06T07:38:28;6.75;;;2.72;;
74959;SDS011;63518;49.572;1.106;2023-04-06T07:40:58;6.05;;;2.22;;
74959;SDS011;63518;49.572;1.106;2023-04-06T07:43:26;5.28;;;1.70;;
74959;SDS011;63518;49.572;1.106;2023-04-06T07:45:59;8.90;;;3.13;;
74959;SDS011;63518;49.572;1.106;2023-04-06T07:48:27;6.05;;;1.63;;
74959;SDS011;63518;49.572;1.106;2023-04-06T07:51:00;6.57;;;2.47;;
74959;SDS011;63518;49.572;1.106;2023-04-06T07:53:28;4.50;;;1.42;;
74959;SDS011;63518;49.572;1.106;2023-04-06T07:55:55;9.65;;;3.22;;
74959;SDS011;63518;49.572;1.106;2023-04-06T07:58:22;6.68;;;2.03;;
74959;SDS011;63518;49.572;1.106;2023-04-06T08:00:49;10.57;;;3.53;;
74959;SDS011;63518;49.572;1.106;2023-04-06T08:03:16;6.80;;;3.05;;
74959;SDS011;63518;49.572;1.106;2023-04-06T08:05:48;8.20;;;2.78;;
74959;SDS011;63518;49.572;1.106;2023-04-06T08:08:17;5.40;;;2.35;;
74959;SDS011;63518;49.572;1.106;2023-04-06T08:10:44;8.88;;;3.67;;
74959;SDS011;63518;49.572;1.106;2023-04-06T08:13:11;4.45;;;1.85;;
74959;SDS011;63518;49.572;1.106;2023-04-06T08:15:38;7.35;;;2.65;;
74959;SDS011;63518;49.572;1.106;2023-04-06T08:18:05;8.02;;;3.35;;
74959;SDS011;63518;49.572;1.106;2023-04-06T08:20:32;4.18;;;1.63;;
74959;SDS011;63518;49.572;1.106;2023-04-06T08:22:59;8.40;;;2.58;;
74959;SDS011;63518;49.572;1.106;2023-04-06T08:25:27;7.90;;;2.67;;
74959;SDS011;63518;49.572;1.106;2023-04-06T08:27:54;6.13;;;2.35;;
74959;SDS011;63518;49.572;1.106;2023-04-06T08:30:21;6.72;;;2.53;;
74959;SDS011;63518;49.572;1.106;2023-04-06T08:32:48;11.38;;;4.72;;
74959;SDS011;63518;49.572;1.106;2023-04-06T08:35:15;8.25;;;3.90;;
74959;SDS011;63518;49.572;1.106;2023-04-06T08:37:42;8.63;;;3.70;;
74959;SDS011;63518;49.572;1.106;2023-04-06T08:40:12;9.57;;;4.53;;
74959;SDS011;63518;49.572;1.106;2023-04-06T08:42:40;9.23;;;3.90;;
74959;SDS011;63518;49.572;1.106;2023-04-06T08:47:44;7.18;;;2.67;;
74959;SDS011;63518;49.572;1.106;2023-04-06T08:50:27;4.18;;;1.83;;
74959;SDS011;63518;49.572;1.106;2023-04-06T08:53:01;4.35;;;2.00;;
74959;SDS011;63518;49.572;1.106;2023-04-06T08:55:29;5.35;;;2.33;;
74959;SDS011;63518;49.572;1.106;2023-04-06T08:58:03;6.15;;;3.00;;
74959;SDS011;63518;49.572;1.106;2023-04-06T09:01:20;6.97;;;2.08;;
74959;SDS011;63518;49.572;1.106;2023-04-06T09:03:53;7.22;;;3.13;;
74959;SDS011;63518;49.572;1.106;2023-04-06T09:11:08;9.57;;;4.13;;
74959;SDS011;63518;49.572;1.106;2023-04-06T09:17:19;4.00;;;2.05;;
74959;SDS011;63518;49.572;1.106;2023-04-06T09:23:05;7.93;;;3.42;;
74959;SDS011;63518;49.572;1.106;2023-04-06T09:29:44;7.20;;;2.88;;
74959;SDS011;63518;49.572;1.106;2023-04-06T09:32:45;4.85;;;2.13;;
74959;SDS011;63518;49.572;1.106;2023-04-06T09:35:20;5.70;;;1.73;;
74959;SDS011;63518;49.572;1.106;2023-04-06T09:37:49;9.30;;;2.67;;
74959;SDS011;63518;49.572;1.106;2023-04-06T09:40:18;4.05;;;1.30;;
74959;SDS011;63518;49.572;1.106;2023-04-06T09:42:46;6.70;;;2.53;;
74959;SDS011;63518;49.572;1.106;2023-04-06T09:45:15;5.53;;;1.90;;
74959;SDS011;63518;49.572;1.106;2023-04-06T09:47:43;9.57;;;2.35;;
74959;SDS011;63518;49.572;1.106;2023-04-06T09:50:12;6.25;;;1.65;;
74959;SDS011;63518;49.572;1.106;2023-04-06T09:52:41;7.63;;;2.22;;
74959;SDS011;63518;49.572;1.106;2023-04-06T09:55:16;10.07;;;2.38;;
74959;SDS011;63518;49.572;1.106;2023-04-06T10:00:20;7.90;;;2.40;;
74959;SDS011;63518;49.572;1.106;2023-04-06T10:03:03;7.22;;;2.00;;
74959;SDS011;63518;49.572;1.106;2023-04-06T10:08:08;3.28;;;1.42;;
74959;SDS011;63518;49.572;1.106;2023-04-06T10:10:36;6.50;;;1.90;;
74959;SDS011;63518;49.572;1.106;2023-04-06T10:13:04;5.10;;;1.42;;
74959;SDS011;63518;49.572;1.106;2023-04-06T10:15:32;6.78;;;1.35;;
74959;SDS011;63518;49.572;1.106;2023-04-06T10:18:00;8.65;;;2.22;;
74959;SDS011;63518;49.572;1.106;2023-04-06T10:23:36;6.55;;;1.67;;
74959;SDS011;63518;49.572;1.106;2023-04-06T10:26:12;10.23;;;2.30;;
74959;SDS011;63518;49.572;1.106;2023-04-06T10:28:41;8.75;;;1.92;;
74959;SDS011;63518;49.572;1.106;2023-04-06T10:31:09;9.23;;;2.55;;
74959;SDS011;63518;49.572;1.106;2023-04-06T10:33:36;5.88;;;1.30;;
74959;SDS011;63518;49.572;1.106;2023-04-06T10:36:13;7.20;;;1.35;;
74959;SDS011;63518;49.572;1.106;2023-04-06T10:38:41;7.00;;;2.08;;
74959;SDS011;63518;49.572;1.106;2023-04-06T10:41:09;7.25;;;1.20;;
74959;SDS011;63518;49.572;1.106;2023-04-06T10:43:38;10.77;;;1.52;;
74959;SDS011;63518;49.572;1.106;2023-04-06T10:46:08;11.13;;;1.90;;
74959;SDS011;63518;49.572;1.106;2023-04-06T10:48:37;7.50;;;1.83;;
74959;SDS011;63518;49.572;1.106;2023-04-06T10:51:10;5.15;;;1.42;;
74959;SDS011;63518;49.572;1.106;2023-04-06T10:53:39;8.73;;;1.23;;
74959;SDS011;63518;49.572;1.106;2023-04-06T10:56:09;8.27;;;1.92;;
74959;SDS011;63518;49.572;1.106;2023-04-06T10:58:38;8.50;;;1.60;;
74959;SDS011;63518;49.572;1.106;2023-04-06T11:01:11;4.50;;;0.77;;
74959;SDS011;63518;49.572;1.106;2023-04-06T11:03:45;4.47;;;0.90;;
74959;SDS011;63518;49.572;1.106;2023-04-06T11:08:47;7.20;;;0.93;;
74959;SDS011;63518;49.572;1.106;2023-04-06T11:11:14;4.80;;;1.05;;
74959;SDS011;63518;49.572;1.106;2023-04-06T11:13:45;5.07;;;1.42;;
74959;SDS011;63518;49.572;1.106;2023-04-06T11:16:17;7.65;;;1.42;;
74959;SDS011;63518;49.572;1.106;2023-04-06T11:18:49;7.47;;;1.42;;
74959;SDS011;63518;49.572;1.106;2023-04-06T11:21:31;10.15;;;1.20;;
74959;SDS011;63518;49.572;1.106;2023-04-06T11:24:06;8.82;;;1.73;;
74959;SDS011;63518;49.572;1.106;2023-04-06T11:29:25;7.97;;;1.58;;
74959;SDS011;63518;49.572;1.106;2023-04-06T11:31:57;6.30;;;1.15;;
74959;SDS011;63518;49.572;1.106;2023-04-06T11:34:29;9.93;;;2.03;;
74959;SDS011;63518;49.572;1.106;2023-04-06T11:36:58;12.00;;;1.55;;
74959;SDS011;63518;49.572;1.106;2023-04-06T11:39:27;4.70;;;0.80;;
74959;SDS011;63518;49.572;1.106;2023-04-06T11:41:58;7.60;;;0.88;;
74959;SDS011;63518;49.572;1.106;2023-04-06T11:44:35;5.22;;;0.90;;
74959;SDS011;63518;49.572;1.106;2023-04-06T11:47:06;7.93;;;0.80;;
74959;SDS011;63518;49.572;1.106;2023-04-06T11:49:36;12.82;;;2.03;;
74959;SDS011;63518;49.572;1.106;2023-04-06T11:52:14;5.43;;;0.93;;
74959;SDS011;63518;49.572;1.106;2023-04-06T11:54:47;3.97;;;1.02;;
74959;SDS011;63518;49.572;1.106;2023-04-06T11:59:43;5.60;;;1.15;;
74959;SDS011;63518;49.572;1.106;2023-04-06T12:02:11;7.63;;;1.70;;
74959;SDS011;63518;49.572;1.106;2023-04-06T12:04:38;6.63;;;1.50;;
74959;SDS011;63518;49.572;1.106;2023-04-06T12:07:06;6.57;;;1.27;;
74959;SDS011;63518;49.572;1.106;2023-04-06T12:09:37;8.32;;;1.52;;
74959;SDS011;63518;49.572;1.106;2023-04-06T12:12:10;8.55;;;1.55;;
74959;SDS011;63518;49.572;1.106;2023-04-06T12:14:40;8.38;;;1.25;;
74959;SDS011;63518;49.572;1.106;2023-04-06T12:17:10;7.05;;;1.17;;
74959;SDS011;63518;49.572;1.106;2023-04-06T12:19:36;9.52;;;1.50;;
74959;SDS011;63518;49.572;1.106;2023-04-06T12:22:04;8.80;;;1.40;;
74959;SDS011;63518;49.572;1.106;2023-04-06T12:24:31;8.75;;;1.70;;
74959;SDS011;63518;49.572;1.106;2023-04-06T12:26:58;7.88;;;1.23;;
74959;SDS011;63518;49.572;1.106;2023-04-06T12:29:35;6.32;;;0.93;;
74959;SDS011;63518;49.572;1.106;2023-04-06T12:32:05;11.70;;;1.98;;
74959;SDS011;63518;49.572;1.106;2023-04-06T12:34:38;7.93;;;1.30;;
74959;SDS011;63518;49.572;1.106;2023-04-06T12:37:12;11.80;;;1.95;;
74959;SDS011;63518;49.572;1.106;2023-04-06T12:39:41;10.48;;;1.90;;
74959;SDS011;63518;49.572;1.106;2023-04-06T12:42:30;11.38;;;2.20;;
74959;SDS011;63518;49.572;1.106;2023-04-06T12:45:24;6.20;;;1.10;;
74959;SDS011;63518;49.572;1.106;2023-04-06T12:47:51;6.13;;;0.98;;
74959;SDS011;63518;49.572;1.106;2023-04-06T12:50:44;4.88;;;0.90;;
74959;SDS011;63518;49.572;1.106;2023-04-06T12:53:47;6.20;;;1.65;;
74959;SDS011;63518;49.572;1.106;2023-04-06T12:56:17;4.68;;;0.90;;
74959;SDS011;63518;49.572;1.106;2023-04-06T13:35:35;7.97;;;1.20;;
74959;SDS011;63518;49.572;1.106;2023-04-06T13:38:18;5.50;;;0.95;;
74959;SDS011;63518;49.572;1.106;2023-04-06T13:41:03;3.90;;;1.10;;
74959;SDS011;63518;49.572;1.106;2023-04-06T13:43:45;2.63;;;0.50;;
74959;SDS011;63518;49.572;1.106;2023-04-06T13:46:32;3.13;;;0.98;;
74959;SDS011;63518;49.572;1.106;2023-04-06T13:49:37;5.55;;;1.10;;
74959;SDS011;63518;49.572;1.106;2023-04-06T14:55:50;4.38;;;0.60;;
74959;SDS011;63518;49.572;1.106;2023-04-06T14:58:20;2.78;;;0.63;;
74959;SDS011;63518;49.572;1.106;2023-04-06T15:01:00;6.65;;;0.90;;
74959;SDS011;63518;49.572;1.106;2023-04-06T15:03:29;5.53;;;0.90;;
74959;SDS011;63518;49.572;1.106;2023-04-06T15:05:56;4.47;;;0.98;;
74959;SDS011;63518;49.572;1.106;2023-04-06T15:08:24;4.75;;;1.00;;
74959;SDS011;63518;49.572;1.106;2023-04-06T15:10:51;7.93;;;1.25;;
74959;SDS011;63518;49.572;1.106;2023-04-06T15:13:21;4.22;;;1.38;;
74959;SDS011;63518;49.572;1.106;2023-04-06T15:15:49;8.07;;;1.33;;
74959;SDS011;63518;49.572;1.106;2023-04-06T15:18:18;5.68;;;1.30;;
74959;SDS011;63518;49.572;1.106;2023-04-06T15:20:45;5.55;;;0.93;;
74959;SDS011;63518;49.572;1.106;2023-04-06T15:23:12;5.97;;;1.17;;
74959;SDS011;63518;49.572;1.106;2023-04-06T15:25:39;5.28;;;0.70;;
74959;SDS011;63518;49.572;1.106;2023-04-06T15:28:07;3.17;;;0.75;;
74959;SDS011;63518;49.572;1.106;2023-04-06T15:30:34;7.53;;;1.25;;
74959;SDS011;63518;49.572;1.106;2023-04-06T15:33:03;3.60;;;0.73;;
74959;SDS011;63518;49.572;1.106;2023-04-06T15:35:33;6.72;;;1.02;;
74959;SDS011;63518;49.572;1.106;2023-04-06T15:40:44;4.93;;;1.13;;
74959;SDS011;63518;49.572;1.106;2023-04-06T15:43:13;5.00;;;0.98;;
74959;SDS011;63518;49.572;1.106;2023-04-06T15:45:41;4.63;;;0.57;;
74959;SDS011;63518;49.572;1.106;2023-04-06T15:48:08;4.93;;;0.95;;
74959;SDS011;63518;49.572;1.106;2023-04-06T15:50:35;3.90;;;0.77;;
74959;SDS011;63518;49.572;1.106;2023-04-06T15:53:02;5.30;;;1.00;;
74959;SDS011;63518;49.572;1.106;2023-04-06T15:55:29;6.60;;;1.10;;
74959;SDS011;63518;49.572;1.106;2023-04-06T15:57:57;1.45;;;0.32;;
74959;SDS011;63518;49.572;1.106;2023-04-06T16:00:24;4.00;;;0.60;;
74959;SDS011;63518;49.572;1.106;2023-04-06T16:02:51;4.00;;;0.70;;
74959;SDS011;63518;49.572;1.106;2023-04-06T16:05:18;7.38;;;1.10;;
74959;SDS011;63518;49.572;1.106;2023-04-06T16:07:45;6.25;;;1.20;;
74959;SDS011;63518;49.572;1.106;2023-04-06T16:10:12;3.55;;;0.50;;
74959;SDS011;63518;49.572;1.106;2023-04-06T16:12:39;4.45;;;1.10;;
74959;SDS011;63518;49.572;1.106;2023-04-06T16:15:08;6.03;;;1.10;;
74959;SDS011;63518;49.572;1.106;2023-04-06T16:17:35;4.55;;;0.65;;
74959;SDS011;63518;49.572;1.106;2023-04-06T16:20:02;6.15;;;0.80;;
74959;SDS011;63518;49.572;1.106;2023-04-06T16:22:32;4.13;;;0.70;;
74959;SDS011;63518;49.572;1.106;2023-04-06T16:25:02;4.85;;;0.93;;
74959;SDS011;63518;49.572;1.106;2023-04-06T16:27:29;4.00;;;0.50;;
74959;SDS011;63518;49.572;1.106;2023-04-06T16:30:05;4.85;;;0.93;;
74959;SDS011;63518;49.572;1.106;2023-04-06T16:32:33;5.10;;;0.80;;
74959;SDS011;63518;49.572;1.106;2023-04-06T16:35:01;7.22;;;0.90;;
74959;SDS011;63518;49.572;1.106;2023-04-06T16:37:29;6.30;;;1.02;;
74959;SDS011;63518;49.572;1.106;2023-04-06T16:39:59;5.97;;;0.80;;
74959;SDS011;63518;49.572;1.106;2023-04-06T16:42:26;6.15;;;1.05;;
74959;SDS011;63518;49.572;1.106;2023-04-06T16:44:53;5.10;;;1.08;;
74959;SDS011;63518;49.572;1.106;2023-04-06T16:47:21;5.18;;;0.82;;
74959;SDS011;63518;49.572;1.106;2023-04-06T16:49:49;5.95;;;0.98;;
74959;SDS011;63518;49.572;1.106;2023-04-06T16:52:17;4.40;;;0.80;;
74959;SDS011;63518;49.572;1.106;2023-04-06T16:54:44;3.13;;;0.50;;
74959;SDS011;63518;49.572;1.106;2023-04-06T16:57:11;6.35;;;0.80;;
74959;SDS011;63518;49.572;1.106;2023-04-06T16:59:39;4.72;;;0.70;;
74959;SDS011;63518;49.572;1.106;2023-04-06T17:02:06;5.43;;;0.65;;
74959;SDS011;63518;49.572;1.106;2023-04-06T17:04:33;3.42;;;0.47;;
74959;SDS011;63518;49.572;1.106;2023-04-06T17:07:05;6.97;;;0.98;;
74959;SDS011;63518;49.572;1.106;2023-04-06T17:09:34;6.20;;;1.10;;
74959;SDS011;63518;49.572;1.106;2023-04-06T17:12:01;6.03;;;1.20;;